sensor_id;sensor_type;location;lat;lon;timestamp;P1;durP1;ratioP1;P2;durP2;ratioP2
14153;SDS011;7157;53.144;7.570;2023-08-17T00:06:11;6.43;;;2.85;;
14153;SDS011;7157;53.144;7.570;2023-08-17T00:16:13;8.13;;;2.97;;
14153;SDS011;7157;53.144;7.570;2023-08-17T00:26:18;6.55;;;2.65;;
14153;SDS011;7157;53.144;7.570;2023-08-17T00:36:21;8.52;;;2.90;;
14153;SDS011;7157;53.144;7.570;2023-08-17T00:46:25;5.72;;;2.67;;
14153;SDS011;7157;53.144;7.570;2023-08-17T00:56:29;7.65;;;2.78;;
14153;SDS011;7157;53.144;7.570;2023-08-17T01:06:33;7.18;;;2.47;;
14153;SDS011;7157;53.144;7.570;2023-08-17T01:16:38;5.82;;;2.30;;
14153;SDS011;7157;53.144;7.570;2023-08-17T01:26:45;6.22;;;2.28;;
14153;SDS011;7157;53.144;7.570;2023-08-17T01:36:50;5.57;;;2.17;;
14153;SDS011;7157;53.144;7.570;2023-08-17T01:46:57;5.60;;;2.50;;
14153;SDS011;7157;53.144;7.570;2023-08-17T01:57:00;5.68;;;2.35;;
14153;SDS011;7157;53.144;7.570;2023-08-17T02:07:04;4.22;;;2.40;;
14153;SDS011;7157;53.144;7.570;2023-08-17T02:17:07;5.93;;;2.33;;
14153;SDS011;7157;53.144;7.570;2023-08-17T02:27:11;6.22;;;2.45;;
14153;SDS011;7157;53.144;7.570;2023-08-17T02:37:14;5.13;;;2.40;;
14153;SDS011;7157;53.144;7.570;2023-08-17T02:47:18;7.47;;;2.75;;
14153;SDS011;7157;53.144;7.570;2023-08-17T02:57:21;6.72;;;2.92;;
14153;SDS011;7157;53.144;7.570;2023-08-17T03:07:25;6.68;;;2.92;;
14153;SDS011;7157;53.144;7.570;2023-08-17T03:17:28;8.77;;;3.17;;
14153;SDS011;7157;53.144;7.570;2023-08-17T03:27:33;11.25;;;3.63;;
14153;SDS011;7157;53.144;7.570;2023-08-17T03:37:35;15.02;;;3.63;;
14153;SDS011;7157;53.144;7.570;2023-08-17T03:47:41;9.32;;;3.17;;
14153;SDS011;7157;53.144;7.570;2023-08-17T03:57:45;11.30;;;3.15;;
14153;SDS011;7157;53.144;7.570;2023-08-17T04:07:49;9.20;;;3.88;;
14153;SDS011;7157;53.144;7.570;2023-08-17T04:17:52;8.82;;;3.00;;
14153;SDS011;7157;53.144;7.570;2023-08-17T04:27:56;10.65;;;3.95;;
14153;SDS011;7157;53.144;7.570;2023-08-17T04:37:59;9.73;;;3.28;;
14153;SDS011;7157;53.144;7.570;2023-08-17T04:48:03;11.90;;;2.70;;
14153;SDS011;7157;53.144;7.570;2023-08-17T04:58:07;8.05;;;2.40;;
14153;SDS011;7157;53.144;7.570;2023-08-17T05:08:11;8.43;;;2.40;;
14153;SDS011;7157;53.144;7.570;2023-08-17T05:18:15;12.80;;;2.83;;
14153;SDS011;7157;53.144;7.570;2023-08-17T05:28:19;8.00;;;1.77;;
14153;SDS011;7157;53.144;7.570;2023-08-17T05:38:22;9.93;;;2.00;;
14153;SDS011;7157;53.144;7.570;2023-08-17T05:48:26;4.72;;;1.48;;
14153;SDS011;7157;53.144;7.570;2023-08-17T05:58:29;5.38;;;1.70;;
14153;SDS011;7157;53.144;7.570;2023-08-17T06:08:33;6.25;;;1.88;;
14153;SDS011;7157;53.144;7.570;2023-08-17T06:18:36;5.40;;;1.30;;
14153;SDS011;7157;53.144;7.570;2023-08-17T06:28:40;8.65;;;1.75;;
14153;SDS011;7157;53.144;7.570;2023-08-17T06:38:43;7.10;;;1.67;;
14153;SDS011;7157;53.144;7.570;2023-08-17T06:48:48;5.78;;;1.42;;
14153;SDS011;7157;53.144;7.570;2023-08-17T06:58:50;3.70;;;1.13;;
14153;SDS011;7157;53.144;7.570;2023-08-17T07:08:54;3.30;;;1.08;;
14153;SDS011;7157;53.144;7.570;2023-08-17T07:18:58;4.85;;;1.40;;
14153;SDS011;7157;53.144;7.570;2023-08-17T07:29:02;8.88;;;2.90;;
14153;SDS011;7157;53.144;7.570;2023-08-17T07:39:05;8.65;;;2.20;;
14153;SDS011;7157;53.144;7.570;2023-08-17T07:49:09;6.43;;;2.17;;
14153;SDS011;7157;53.144;7.570;2023-08-17T07:59:30;5.57;;;1.50;;
14153;SDS011;7157;53.144;7.570;2023-08-17T08:09:34;12.73;;;3.05;;
14153;SDS011;7157;53.144;7.570;2023-08-17T08:19:37;8.77;;;3.15;;
14153;SDS011;7157;53.144;7.570;2023-08-17T08:29:41;4.07;;;1.23;;
14153;SDS011;7157;53.144;7.570;2023-08-17T08:39:47;2.83;;;1.40;;
14153;SDS011;7157;53.144;7.570;2023-08-17T08:49:57;4.50;;;2.03;;
14153;SDS011;7157;53.144;7.570;2023-08-17T09:00:02;4.18;;;1.50;;
14153;SDS011;7157;53.144;7.570;2023-08-17T09:10:08;3.15;;;1.45;;
14153;SDS011;7157;53.144;7.570;2023-08-17T09:20:12;6.35;;;1.90;;
14153;SDS011;7157;53.144;7.570;2023-08-17T09:30:40;6.22;;;2.10;;
14153;SDS011;7157;53.144;7.570;2023-08-17T09:40:51;9.50;;;1.88;;
14153;SDS011;7157;53.144;7.570;2023-08-17T09:50:56;4.05;;;1.90;;
14153;SDS011;7157;53.144;7.570;2023-08-17T10:01:03;6.80;;;2.15;;
14153;SDS011;7157;53.144;7.570;2023-08-17T10:11:08;5.90;;;1.90;;
14153;SDS011;7157;53.144;7.570;2023-08-17T10:21:13;8.27;;;2.30;;
14153;SDS011;7157;53.144;7.570;2023-08-17T10:31:21;4.13;;;1.80;;
14153;SDS011;7157;53.144;7.570;2023-08-17T10:41:24;6.32;;;1.75;;
14153;SDS011;7157;53.144;7.570;2023-08-17T10:51:28;6.10;;;1.90;;
14153;SDS011;7157;53.144;7.570;2023-08-17T11:01:32;7.03;;;2.13;;
14153;SDS011;7157;53.144;7.570;2023-08-17T11:11:37;4.38;;;2.10;;
14153;SDS011;7157;53.144;7.570;2023-08-17T11:21:40;4.32;;;2.00;;
14153;SDS011;7157;53.144;7.570;2023-08-17T11:31:45;4.20;;;1.73;;
14153;SDS011;7157;53.144;7.570;2023-08-17T11:41:51;5.60;;;2.42;;
14153;SDS011;7157;53.144;7.570;2023-08-17T11:51:56;4.78;;;2.50;;
14153;SDS011;7157;53.144;7.570;2023-08-17T12:01:59;6.35;;;2.30;;
14153;SDS011;7157;53.144;7.570;2023-08-17T12:12:05;4.60;;;2.63;;
14153;SDS011;7157;53.144;7.570;2023-08-17T12:22:10;4.47;;;2.20;;
14153;SDS011;7157;53.144;7.570;2023-08-17T12:32:16;8.15;;;2.63;;
14153;SDS011;7157;53.144;7.570;2023-08-17T12:42:20;11.65;;;2.15;;
14153;SDS011;7157;53.144;7.570;2023-08-17T12:52:24;6.38;;;2.45;;
14153;SDS011;7157;53.144;7.570;2023-08-17T13:02:27;4.75;;;2.40;;
14153;SDS011;7157;53.144;7.570;2023-08-17T13:12:32;4.32;;;2.75;;
14153;SDS011;7157;53.144;7.570;2023-08-17T13:22:35;6.03;;;2.90;;
14153;SDS011;7157;53.144;7.570;2023-08-17T13:32:39;4.40;;;2.40;;
14153;SDS011;7157;53.144;7.570;2023-08-17T13:42:45;4.47;;;2.77;;
14153;SDS011;7157;53.144;7.570;2023-08-17T13:52:49;7.20;;;3.40;;
14153;SDS011;7157;53.144;7.570;2023-08-17T14:02:52;10.38;;;3.25;;
14153;SDS011;7157;53.144;7.570;2023-08-17T14:12:57;10.02;;;3.80;;
14153;SDS011;7157;53.144;7.570;2023-08-17T14:22:59;5.10;;;3.05;;
14153;SDS011;7157;53.144;7.570;2023-08-17T14:33:04;4.22;;;2.50;;
14153;SDS011;7157;53.144;7.570;2023-08-17T14:43:07;6.22;;;2.28;;
14153;SDS011;7157;53.144;7.570;2023-08-17T14:53:12;6.70;;;2.33;;
14153;SDS011;7157;53.144;7.570;2023-08-17T15:03:14;6.10;;;2.78;;
14153;SDS011;7157;53.144;7.570;2023-08-17T15:13:19;4.75;;;2.40;;
14153;SDS011;7157;53.144;7.570;2023-08-17T15:23:24;11.68;;;3.60;;
14153;SDS011;7157;53.144;7.570;2023-08-17T15:33:28;5.68;;;2.30;;
14153;SDS011;7157;53.144;7.570;2023-08-17T15:43:31;5.25;;;2.30;;
14153;SDS011;7157;53.144;7.570;2023-08-17T15:53:35;5.20;;;2.72;;
14153;SDS011;7157;53.144;7.570;2023-08-17T16:03:40;6.40;;;2.85;;
14153;SDS011;7157;53.144;7.570;2023-08-17T16:13:45;6.03;;;3.00;;
14153;SDS011;7157;53.144;7.570;2023-08-17T16:23:47;2.95;;;1.50;;
14153;SDS011;7157;53.144;7.570;2023-08-17T16:33:52;3.03;;;1.48;;
14153;SDS011;7157;53.144;7.570;2023-08-17T16:43:54;2.80;;;1.30;;
14153;SDS011;7157;53.144;7.570;2023-08-17T16:53:59;3.55;;;1.50;;
14153;SDS011;7157;53.144;7.570;2023-08-17T17:04:01;2.08;;;1.10;;
14153;SDS011;7157;53.144;7.570;2023-08-17T17:14:06;5.03;;;1.40;;
14153;SDS011;7157;53.144;7.570;2023-08-17T17:24:09;3.28;;;1.30;;
14153;SDS011;7157;53.144;7.570;2023-08-17T17:34:13;3.20;;;1.48;;
14153;SDS011;7157;53.144;7.570;2023-08-17T17:44:16;4.40;;;1.13;;
14153;SDS011;7157;53.144;7.570;2023-08-17T17:54:20;3.13;;;1.40;;
14153;SDS011;7157;53.144;7.570;2023-08-17T18:04:22;3.15;;;1.50;;
14153;SDS011;7157;53.144;7.570;2023-08-17T18:14:27;2.00;;;1.00;;
14153;SDS011;7157;53.144;7.570;2023-08-17T18:24:30;4.18;;;1.50;;
14153;SDS011;7157;53.144;7.570;2023-08-17T18:34:34;3.25;;;1.38;;
14153;SDS011;7157;53.144;7.570;2023-08-17T18:44:37;3.42;;;1.40;;
14153;SDS011;7157;53.144;7.570;2023-08-17T18:54:44;2.80;;;1.50;;
14153;SDS011;7157;53.144;7.570;2023-08-17T19:04:59;2.90;;;1.23;;
14153;SDS011;7157;53.144;7.570;2023-08-17T19:15:05;3.60;;;1.20;;
14153;SDS011;7157;53.144;7.570;2023-08-17T19:25:09;5.55;;;1.10;;
14153;SDS011;7157;53.144;7.570;2023-08-17T19:35:19;4.67;;;0.97;;
14153;SDS011;7157;53.144;7.570;2023-08-17T19:45:22;3.20;;;0.80;;
14153;SDS011;7157;53.144;7.570;2023-08-17T19:55:26;4.82;;;1.60;;
14153;SDS011;7157;53.144;7.570;2023-08-17T20:05:29;1.92;;;0.80;;
14153;SDS011;7157;53.144;7.570;2023-08-17T20:15:36;2.60;;;0.80;;
14153;SDS011;7157;53.144;7.570;2023-08-17T20:25:39;3.40;;;0.85;;
14153;SDS011;7157;53.144;7.570;2023-08-17T20:35:44;2.33;;;0.80;;
14153;SDS011;7157;53.144;7.570;2023-08-17T20:45:52;1.92;;;0.80;;
14153;SDS011;7157;53.144;7.570;2023-08-17T20:55:56;2.80;;;0.95;;
14153;SDS011;7157;53.144;7.570;2023-08-17T21:06:01;4.43;;;0.88;;
14153;SDS011;7157;53.144;7.570;2023-08-17T21:16:06;3.15;;;0.80;;
14153;SDS011;7157;53.144;7.570;2023-08-17T21:26:10;2.60;;;0.80;;
14153;SDS011;7157;53.144;7.570;2023-08-17T21:36:14;3.08;;;0.90;;
14153;SDS011;7157;53.144;7.570;2023-08-17T21:46:17;2.55;;;0.82;;
14153;SDS011;7157;53.144;7.570;2023-08-17T21:56:21;3.90;;;1.00;;
14153;SDS011;7157;53.144;7.570;2023-08-17T22:06:24;3.03;;;1.13;;
14153;SDS011;7157;53.144;7.570;2023-08-17T22:16:29;2.83;;;1.00;;
14153;SDS011;7157;53.144;7.570;2023-08-17T22:26:32;3.25;;;1.10;;
14153;SDS011;7157;53.144;7.570;2023-08-17T22:36:36;3.17;;;1.17;;
14153;SDS011;7157;53.144;7.570;2023-08-17T22:46:39;6.20;;;1.00;;
14153;SDS011;7157;53.144;7.570;2023-08-17T22:56:43;3.97;;;1.10;;
14153;SDS011;7157;53.144;7.570;2023-08-17T23:06:46;2.78;;;1.05;;
14153;SDS011;7157;53.144;7.570;2023-08-17T23:16:50;4.82;;;1.10;;
14153;SDS011;7157;53.144;7.570;2023-08-17T23:26:52;5.30;;;1.27;;
14153;SDS011;7157;53.144;7.570;2023-08-17T23:36:56;2.67;;;1.05;;
14153;SDS011;7157;53.144;7.570;2023-08-17T23:46:59;4.38;;;1.30;;
14153;SDS011;7157;53.144;7.570;2023-08-17T23:57:04;5.30;;;1.30;;
